createdAt,value
2023-01-29T00:00:02.871Z,2.17
2023-01-29T00:05:25.415Z,2.13
2023-01-29T00:10:28.509Z,2.07
2023-01-29T00:15:30.567Z,1.96
2023-01-29T00:20:32.686Z,1.85
2023-01-29T00:25:34.638Z,1.75
2023-01-29T00:30:37.532Z,1.65
2023-01-29T00:35:40.278Z,1.52
2023-01-29T00:41:00.579Z,1.39
2023-01-29T00:46:02.592Z,1.30
2023-01-29T00:51:04.732Z,1.22
2023-01-29T00:56:07.164Z,1.13
2023-01-29T01:01:09.193Z,1.03
2023-01-29T01:06:11.569Z,0.94
2023-01-29T01:11:13.606Z,0.90
2023-01-29T01:16:18.985Z,0.80
2023-01-29T01:21:21.047Z,0.74
2023-01-29T01:26:23.130Z,0.69
2023-01-29T01:31:25.493Z,0.61
2023-01-29T01:36:27.539Z,0.56
2023-01-29T01:41:30.664Z,0.49
2023-01-29T01:46:34.856Z,0.51
2023-01-29T01:51:41.178Z,0.49
2023-01-29T01:56:48.393Z,0.47
2023-01-29T02:07:20.167Z,0.40
2023-01-29T02:12:23.484Z,0.38
2023-01-29T02:17:25.665Z,0.32
2023-01-29T02:22:55.632Z,0.28
2023-01-29T02:28:21.778Z,0.22
2023-01-29T02:33:32.342Z,0.21
2023-01-29T02:38:40.483Z,0.15
2023-01-29T02:43:56.450Z,0.05
2023-01-29T02:49:07.325Z,0.04
2023-01-29T02:54:25.103Z,0.00
2023-01-29T02:59:43.744Z,-0.10
2023-01-29T03:04:51.815Z,-0.10
2023-01-29T03:09:55.324Z,-0.15
2023-01-29T03:15:12.416Z,-0.21
2023-01-29T03:20:20.082Z,-0.25
2023-01-29T03:25:45.786Z,-0.27
2023-01-29T03:31:13.744Z,-0.31
2023-01-29T03:36:23.362Z,-0.34
2023-01-29T03:41:39.007Z,-0.39
2023-01-29T03:46:56.610Z,-0.44
2023-01-29T03:52:10.826Z,-0.48
2023-01-29T03:57:15.774Z,-0.51
2023-01-29T04:02:28.144Z,-0.54
2023-01-29T04:07:33.773Z,-0.57
2023-01-29T04:12:49.593Z,-0.60
2023-01-29T04:17:53.456Z,-0.66
2023-01-29T04:22:55.563Z,-0.67
2023-01-29T04:28:28.859Z,-0.70
2023-01-29T04:33:49.369Z,-0.75
2023-01-29T04:39:11.666Z,-0.79
2023-01-29T04:44:40.538Z,-0.80
2023-01-29T04:50:11.676Z,-0.80
2023-01-29T04:55:29.090Z,-0.80
2023-01-29T05:00:36.153Z,-0.85
2023-01-29T05:05:41.988Z,-0.86
2023-01-29T05:10:46.018Z,-0.85
2023-01-29T05:15:58.000Z,-0.89
2023-01-29T05:21:06.713Z,-0.91
2023-01-29T05:26:08.688Z,-0.90
2023-01-29T05:31:10.800Z,-0.91
2023-01-29T05:36:12.865Z,-0.90
2023-01-29T05:41:16.680Z,-0.96
2023-01-29T05:46:19.180Z,-0.96
2023-01-29T05:51:21.291Z,-0.96
2023-01-29T05:56:23.488Z,-0.97
2023-01-29T06:01:26.451Z,-0.98
2023-01-29T06:06:28.467Z,-0.98
2023-01-29T06:11:30.468Z,-0.98
2023-01-29T06:16:32.563Z,-1.00
2023-01-29T06:21:34.673Z,-0.98
2023-01-29T06:26:36.812Z,-0.99
2023-01-29T06:31:39.709Z,-1.00
2023-01-29T06:36:42.211Z,-1.02
2023-01-29T06:41:45.657Z,-1.03
2023-01-29T06:46:47.662Z,-1.02
2023-01-29T06:51:50.031Z,-1.03
2023-01-29T06:56:52.639Z,-1.03
2023-01-29T07:01:54.743Z,-1.03
2023-01-29T07:06:56.847Z,-1.04
2023-01-29T07:11:58.833Z,-1.04
2023-01-29T07:17:00.966Z,-1.03
2023-01-29T07:22:04.228Z,-1.02
2023-01-29T07:27:06.126Z,-1.01
2023-01-29T07:32:08.360Z,-1.01
2023-01-29T07:37:10.407Z,-1.01
2023-01-29T07:42:12.410Z,-1.01
2023-01-29T07:47:16.375Z,-1.00
2023-01-29T07:52:21.917Z,-0.97
2023-01-29T07:57:24.991Z,-0.97
2023-01-29T08:02:27.036Z,-0.97
2023-01-29T08:07:29.412Z,-0.95
2023-01-29T08:12:31.487Z,-0.94
2023-01-29T08:17:33.634Z,-0.93
2023-01-29T08:22:35.622Z,-0.91
2023-01-29T08:27:38.057Z,-0.91
2023-01-29T08:32:40.217Z,0.24
2023-01-29T08:37:42.345Z,1.90
2023-01-29T08:42:44.456Z,3.21
2023-01-29T08:47:50.434Z,4.41
2023-01-29T08:52:57.458Z,5.70
2023-01-29T08:57:59.526Z,6.84
2023-01-29T09:03:01.745Z,7.96
2023-01-29T09:08:04.439Z,9.00
2023-01-29T09:13:06.537Z,9.88
2023-01-29T09:18:08.750Z,10.84
2023-01-29T09:23:11.851Z,11.68
2023-01-29T09:28:15.136Z,12.52
2023-01-29T09:33:17.375Z,13.28
2023-01-29T09:38:21.375Z,14.06
2023-01-29T09:43:46.092Z,14.73
2023-01-29T09:48:57.913Z,15.39
2023-01-29T09:54:14.848Z,15.93
2023-01-29T09:59:21.300Z,16.44
2023-01-29T10:04:45.519Z,17.02
2023-01-29T10:10:00.774Z,17.34
2023-01-29T10:15:03.250Z,17.64
2023-01-29T10:20:16.009Z,17.70
2023-01-29T10:25:22.185Z,17.58
2023-01-29T10:30:33.597Z,17.16
2023-01-29T10:35:54.682Z,16.45
2023-01-29T10:41:16.243Z,15.72
2023-01-29T10:46:32.472Z,15.11
2023-01-29T10:51:50.077Z,14.31
2023-01-29T10:57:04.489Z,13.77
2023-01-29T11:02:19.209Z,13.34
2023-01-29T11:07:23.263Z,12.72
2023-01-29T11:12:31.003Z,12.28
2023-01-29T11:17:33.316Z,11.76
2023-01-29T11:22:35.687Z,11.47
2023-01-29T11:27:46.511Z,10.76
2023-01-29T11:33:26.651Z,10.38
2023-01-29T11:38:30.082Z,10.01
2023-01-29T11:43:33.464Z,9.66
2023-01-29T11:48:46.470Z,9.35
2023-01-29T11:53:58.699Z,9.03
2023-01-29T11:59:04.830Z,8.73
2023-01-29T12:04:33.417Z,8.44
2023-01-29T12:09:36.857Z,8.10
2023-01-29T12:14:39.582Z,7.86
2023-01-29T12:19:57.603Z,7.62
2023-01-29T12:25:27.487Z,7.35
2023-01-29T12:30:39.926Z,7.02
2023-01-29T12:35:50.856Z,6.83
2023-01-29T12:41:01.313Z,6.60
2023-01-29T12:46:07.179Z,6.44
2023-01-29T12:51:18.199Z,6.33
2023-01-29T12:56:47.842Z,6.05
2023-01-29T13:02:17.169Z,5.83
2023-01-29T13:07:24.042Z,5.67
2023-01-29T13:12:27.374Z,5.53
2023-01-29T13:17:46.553Z,5.36
2023-01-29T13:22:50.858Z,5.22
2023-01-29T13:27:54.347Z,5.08
2023-01-29T13:33:19.659Z,4.94
2023-01-29T13:38:30.029Z,4.79
2023-01-29T13:43:39.321Z,4.69
2023-01-29T13:48:48.910Z,4.59
2023-01-29T13:54:09.407Z,4.40
2023-01-29T13:59:45.600Z,4.32
2023-01-29T14:04:48.291Z,4.25
2023-01-29T14:09:51.053Z,4.14
2023-01-29T14:14:57.271Z,4.01
2023-01-29T14:20:27.675Z,3.86
2023-01-29T14:25:41.506Z,3.74
2023-01-29T14:30:49.471Z,3.63
2023-01-29T14:35:53.611Z,3.55
2023-01-29T14:41:13.397Z,3.47
2023-01-29T14:46:34.005Z,3.41
2023-01-29T14:51:40.878Z,3.29
2023-01-29T14:57:02.289Z,3.24
2023-01-29T15:02:42.182Z,3.16
2023-01-29T15:07:58.948Z,3.09
2023-01-29T15:13:08.914Z,3.03
2023-01-29T15:18:20.428Z,2.94
2023-01-29T15:23:32.637Z,2.88
2023-01-29T15:28:36.501Z,2.81
2023-01-29T15:33:43.341Z,2.75
2023-01-29T15:38:45.585Z,2.67
2023-01-29T15:43:50.492Z,2.60
2023-01-29T15:48:54.951Z,2.53
2023-01-29T15:54:01.157Z,2.48
2023-01-29T15:59:09.799Z,2.43
2023-01-29T16:04:18.905Z,2.38
2023-01-29T16:09:24.199Z,2.33
2023-01-29T16:14:29.201Z,2.27
2023-01-29T16:19:31.840Z,2.19
2023-01-29T16:24:38.782Z,2.12
2023-01-29T16:29:42.262Z,2.08
2023-01-29T16:34:48.911Z,2.03
2023-01-29T16:39:56.162Z,1.99
2023-01-29T16:45:05.907Z,1.95
2023-01-29T16:50:25.628Z,1.90
2023-01-29T16:55:36.382Z,1.86
2023-01-29T17:00:46.431Z,1.81
2023-01-29T17:05:51.685Z,1.78
2023-01-29T17:10:55.029Z,1.73
2023-01-29T17:16:05.618Z,1.68
2023-01-29T17:21:09.339Z,1.64
2023-01-29T17:26:15.645Z,1.61
2023-01-29T17:31:19.141Z,1.57
2023-01-29T17:36:25.718Z,1.52
2023-01-29T17:41:31.600Z,1.50
2023-01-29T17:46:34.300Z,1.46
2023-01-29T17:51:39.719Z,1.42
2023-01-29T17:56:46.420Z,1.36
2023-01-29T18:01:51.116Z,1.36
2023-01-29T18:06:55.071Z,1.32
2023-01-29T18:11:59.316Z,1.30
2023-01-29T18:17:01.944Z,1.29
2023-01-29T18:22:05.340Z,1.26
2023-01-29T18:27:08.965Z,1.24
2023-01-29T18:32:13.155Z,1.21
2023-01-29T18:37:16.265Z,1.19
2023-01-29T18:42:19.274Z,1.15
2023-01-29T18:47:22.118Z,1.14
2023-01-29T18:52:25.409Z,1.11
2023-01-29T18:58:26.830Z,1.10
2023-01-29T19:02:52.992Z,1.06
2023-01-29T19:07:56.040Z,1.04
2023-01-29T19:12:59.283Z,1.04
2023-01-29T19:18:02.878Z,1.04
2023-01-29T19:23:05.954Z,1.01
2023-01-29T19:28:12.397Z,0.99
2023-01-29T19:33:14.874Z,0.97
2023-01-29T19:38:22.042Z,0.95
2023-01-29T19:43:27.652Z,0.93
2023-01-29T19:48:32.395Z,0.93
2023-01-29T19:53:37.802Z,0.91
2023-01-29T19:58:41.571Z,0.89
2023-01-29T20:03:49.496Z,0.89
2023-01-29T20:08:53.159Z,0.88
2023-01-29T20:13:56.990Z,0.86
2023-01-29T20:19:14.387Z,0.85
2023-01-29T20:24:18.312Z,0.84
2023-01-29T20:29:21.876Z,0.84
2023-01-29T20:34:25.075Z,0.83
2023-01-29T20:39:31.005Z,0.81
2023-01-29T20:44:34.019Z,0.81
2023-01-29T20:49:37.277Z,0.79
2023-01-29T20:54:40.851Z,0.80
2023-01-29T20:59:45.892Z,0.79
2023-01-29T21:04:48.657Z,0.78
2023-01-29T21:09:51.771Z,0.79
2023-01-29T21:14:54.591Z,0.77
2023-01-29T21:19:58.106Z,0.77
2023-01-29T21:25:00.854Z,0.75
2023-01-29T21:30:05.737Z,0.74
2023-01-29T21:35:08.724Z,0.73
2023-01-29T21:40:12.080Z,0.71
2023-01-29T21:45:14.493Z,0.71
2023-01-29T21:50:17.705Z,0.70
2023-01-29T21:55:20.210Z,0.71
2023-01-29T22:00:22.999Z,0.70
2023-01-29T22:05:25.345Z,0.69
2023-01-29T22:10:27.922Z,0.68
2023-01-29T22:15:30.036Z,0.68
2023-01-29T22:20:32.156Z,0.65
2023-01-29T22:25:34.468Z,0.64
2023-01-29T22:30:36.718Z,0.66
2023-01-29T22:35:39.180Z,0.64
2023-01-29T22:40:41.211Z,0.63
2023-01-29T22:45:43.311Z,0.64
2023-01-29T22:50:54.039Z,0.63
2023-01-29T22:55:56.095Z,0.62
2023-01-29T23:00:58.310Z,0.62
2023-01-29T23:06:00.584Z,0.60
2023-01-29T23:11:16.150Z,0.61
2023-01-29T23:16:19.542Z,0.61
2023-01-29T23:21:25.300Z,0.60
2023-01-29T23:26:47.490Z,0.59
2023-01-29T23:31:49.579Z,0.59
2023-01-29T23:36:51.751Z,0.58
2023-01-29T23:41:53.727Z,0.59
2023-01-29T23:46:55.958Z,0.58
2023-01-29T23:51:58.147Z,0.58
2023-01-29T23:57:00.175Z,0.57
